Time;durP1;ratioP1;P1;durP2;ratioP2;P2;SDS_P1;SDS_P2;PMS_P1;PMS_P2;Temp;Humidity;BMP_temperature;BMP_pressure;BME280_temperature;BME280_humidity;BME280_pressure;Samples;Min_cycle;Max_cycle;Signal;HPM_P1;HPM_P2
2023/10/09 00:01:27;;;;;;;3.40;3.20;;;12.10;99.90;;;;;;5030339;28;20445;-64
2023/10/09 00:03:55;;;;;;;4.07;3.67;;;12.20;99.90;;;;;;5030391;28;20540;-64
2023/10/09 00:06:31;;;;;;;5.47;3.17;;;12.20;99.90;;;;;;5033308;28;20559;-63
2023/10/09 00:09:11;;;;;;;3.37;3.17;;;12.20;99.90;;;;;;5033674;28;20491;-64
2023/10/09 00:11:44;;;;;;;4.83;4.43;;;12.20;99.90;;;;;;5034016;28;20835;-64
2023/10/09 00:14:11;;;;;;;3.90;2.80;;;12.20;99.90;;;;;;5033824;28;20928;-64
2023/10/09 00:16:46;;;;;;;5.10;3.43;;;12.20;99.90;;;;;;5033525;28;20469;-64
2023/10/09 00:19:17;;;;;;;3.97;3.10;;;12.20;99.90;;;;;;5033453;28;20448;-63
2023/10/09 00:21:44;;;;;;;4.03;3.63;;;12.20;99.90;;;;;;5033962;28;20863;-64
2023/10/09 00:24:16;;;;;;;6.10;3.43;;;12.30;99.90;;;;;;5033850;28;20449;-63
2023/10/09 00:26:46;;;;;;;6.03;3.60;;;12.30;99.90;;;;;;5033520;28;20452;-63
2023/10/09 00:29:21;;;;;;;4.03;3.73;;;12.30;99.90;;;;;;5033371;28;20881;-64
2023/10/09 00:31:54;;;;;;;4.37;3.97;;;12.30;99.90;;;;;;5033368;28;20443;-64
2023/10/09 00:34:22;;;;;;;4.10;3.50;;;12.30;99.90;;;;;;5033671;28;20499;-64
2023/10/09 00:36:51;;;;;;;4.50;3.67;;;12.30;99.90;;;;;;5033549;28;20528;-64
2023/10/09 00:39:33;;;;;;;3.67;3.37;;;12.30;99.90;;;;;;5033203;28;20452;-64
2023/10/09 00:42:02;;;;;;;3.57;3.23;;;12.30;99.90;;;;;;5033296;28;20441;-63
2023/10/09 00:44:38;;;;;;;5.37;3.53;;;12.30;99.90;;;;;;5032664;28;20445;-64
2023/10/09 00:47:20;;;;;;;4.13;3.80;;;12.40;99.90;;;;;;5032788;28;20893;-64
2023/10/09 00:49:50;;;;;;;5.27;3.40;;;12.40;99.90;;;;;;5021859;28;20875;-64
2023/10/09 00:52:26;;;;;;;3.83;3.53;;;12.40;99.90;;;;;;5013199;28;20449;-64
2023/10/09 00:55:01;;;;;;;4.50;4.10;;;12.40;99.90;;;;;;5011393;28;20500;-64
2023/10/09 00:57:33;;;;;;;5.63;4.00;;;12.40;99.90;;;;;;5011331;28;20491;-63
2023/10/09 01:00:07;;;;;;;3.47;3.17;;;12.40;99.90;;;;;;5011953;28;20460;-64
2023/10/09 01:02:36;;;;;;;4.00;3.57;;;12.40;99.90;;;;;;5011765;28;20489;-64
2023/10/09 01:05:19;;;;;;;3.27;3.00;;;12.40;99.90;;;;;;5011614;28;20501;-64
2023/10/09 01:07:47;;;;;;;6.23;4.03;;;12.40;99.90;;;;;;5029655;28;20489;-64
2023/10/09 01:10:16;;;;;;;4.10;3.80;;;12.40;99.90;;;;;;5029945;28;20525;-64
2023/10/09 01:12:46;;;;;;;4.70;3.30;;;12.50;99.90;;;;;;5032336;28;20446;-64
2023/10/09 01:15:35;;;;;;;3.73;3.40;;;12.40;99.90;;;;;;5032050;28;20457;-64
2023/10/09 01:18:04;;;;;;;3.43;3.13;;;12.40;99.90;;;;;;5032425;28;20538;-63
2023/10/09 01:20:41;;;;;;;4.90;3.20;;;12.40;99.90;;;;;;5032811;28;20471;-64
2023/10/09 01:23:10;;;;;;;3.60;3.30;;;12.40;99.90;;;;;;5032672;28;20535;-64
2023/10/09 01:25:45;;;;;;;3.60;3.30;;;12.40;99.90;;;;;;5032307;28;20467;-64
2023/10/09 01:28:15;;;;;;;4.03;3.50;;;12.40;99.90;;;;;;5032331;28;20517;-64
2023/10/09 01:30:43;;;;;;;3.70;3.40;;;12.40;99.90;;;;;;5032714;28;21228;-64
2023/10/09 01:33:26;;;;;;;3.90;3.60;;;12.40;99.90;;;;;;5032424;28;20834;-64
2023/10/09 01:35:58;;;;;;;4.03;3.73;;;12.40;99.90;;;;;;5032453;28;20815;-64
2023/10/09 01:38:40;;;;;;;3.60;3.30;;;12.40;99.90;;;;;;5031775;28;20429;-63
2023/10/09 01:41:09;;;;;;;5.97;4.53;;;12.40;99.90;;;;;;5031507;28;20445;-64
2023/10/09 01:43:35;;;;;;;4.47;3.63;;;12.40;99.90;;;;;;5031799;28;20941;-63
2023/10/09 01:46:04;;;;;;;4.90;4.23;;;12.40;99.90;;;;;;5046218;28;20471;-64
2023/10/09 01:48:35;;;;;;;3.50;3.20;;;12.40;99.90;;;;;;5051358;28;20484;-64
2023/10/09 01:51:05;;;;;;;4.60;4.20;;;12.40;99.90;;;;;;5051967;28;20964;-63
2023/10/09 01:53:38;;;;;;;4.20;3.67;;;12.40;99.90;;;;;;5051821;28;20444;-64
2023/10/09 01:56:14;;;;;;;3.80;3.43;;;12.40;99.90;;;;;;5051732;28;20514;-64
2023/10/09 01:58:46;;;;;;;4.93;3.27;;;12.40;99.90;;;;;;5046037;28;20449;-64
2023/10/09 02:01:13;;;;;;;4.00;3.53;;;12.40;99.90;;;;;;5043316;28;20444;-64
2023/10/09 02:03:42;;;;;;;3.17;2.93;;;12.40;99.90;;;;;;5051946;28;20452;-63
2023/10/09 02:06:24;;;;;;;4.00;3.70;;;12.40;99.90;;;;;;5051771;28;20471;-64
2023/10/09 02:08:56;;;;;;;4.43;4.00;;;12.40;99.90;;;;;;5051204;28;20518;-64
2023/10/09 02:11:36;;;;;;;4.33;3.70;;;12.40;99.90;;;;;;5051428;28;20446;-63
2023/10/09 02:14:15;;;;;;;4.20;3.90;;;12.30;99.90;;;;;;5051490;28;20448;-63
2023/10/09 02:16:43;;;;;;;3.47;3.27;;;12.30;99.90;;;;;;5051449;28;20833;-64
2023/10/09 02:19:29;;;;;;;6.10;4.50;;;12.30;99.90;;;;;;5051281;28;20551;-64
2023/10/09 02:21:56;;;;;;;5.20;3.50;;;12.20;99.90;;;;;;5051403;28;20475;-63
2023/10/09 02:24:42;;;;;;;3.77;3.40;;;12.20;99.90;;;;;;5051550;28;20452;-63
2023/10/09 02:27:13;;;;;;;3.87;3.57;;;12.20;99.90;;;;;;5050863;28;20440;-63
2023/10/09 02:29:42;;;;;;;4.53;3.33;;;12.10;99.90;;;;;;5050908;28;20583;-64
2023/10/09 02:32:25;;;;;;;4.67;3.80;;;12.10;99.90;;;;;;5051209;28;20444;-64
2023/10/09 02:34:53;;;;;;;4.03;3.73;;;12.00;99.90;;;;;;5051331;28;20504;-63
2023/10/09 02:37:23;;;;;;;4.87;3.30;;;12.00;99.90;;;;;;5051411;28;20448;-64
2023/10/09 02:39:52;;;;;;;4.60;3.57;;;12.00;99.90;;;;;;5051140;28;20440;-64
2023/10/09 02:42:26;;;;;;;4.50;4.20;;;11.90;99.90;;;;;;5051204;28;21350;-63
2023/10/09 02:44:54;;;;;;;4.20;3.63;;;11.90;99.90;;;;;;5050853;28;20979;-62
2023/10/09 02:47:30;;;;;;;4.13;3.60;;;11.80;99.90;;;;;;5051087;28;20486;-64
2023/10/09 02:50:06;;;;;;;4.07;3.70;;;11.80;99.90;;;;;;5050884;28;20432;-64
2023/10/09 02:52:40;;;;;;;4.70;4.30;;;11.80;99.90;;;;;;5051131;28;20867;-64
2023/10/09 02:55:14;;;;;;;4.43;4.03;;;11.70;99.90;;;;;;5050646;28;20829;-63
2023/10/09 02:57:41;;;;;;;4.93;4.50;;;11.70;99.90;;;;;;5050661;28;20440;-64
2023/10/09 03:00:18;;;;;;;3.90;3.63;;;11.60;99.90;;;;;;5051000;28;20444;-63
2023/10/09 03:02:49;;;;;;;4.90;3.60;;;11.60;99.90;;;;;;5050943;28;20493;-64
2023/10/09 03:05:16;;;;;;;4.50;4.10;;;11.60;99.90;;;;;;5050900;28;20489;-64
2023/10/09 03:07:44;;;;;;;3.70;3.30;;;11.60;99.90;;;;;;5050457;28;20447;-64
2023/10/09 03:10:12;;;;;;;4.50;4.10;;;11.50;99.90;;;;;;5050774;28;20458;-63
2023/10/09 03:12:39;;;;;;;4.43;3.90;;;11.50;99.90;;;;;;5050973;28;20448;-64
2023/10/09 03:15:08;;;;;;;4.57;4.03;;;11.50;99.90;;;;;;5049469;28;20468;-64
2023/10/09 03:17:35;;;;;;;4.23;3.90;;;11.40;99.90;;;;;;5050365;28;21006;-64
2023/10/09 03:20:11;;;;;;;4.20;3.80;;;11.40;99.90;;;;;;5050830;28;20455;-63
2023/10/09 03:22:38;;;;;;;3.87;3.57;;;11.40;99.90;;;;;;5050680;28;20947;-64
2023/10/09 03:25:11;;;;;;;3.43;3.13;;;11.30;99.90;;;;;;5050296;28;20554;-63
2023/10/09 03:27:44;;;;;;;4.00;3.60;;;11.30;99.90;;;;;;5050362;28;20452;-64
2023/10/09 03:30:16;;;;;;;4.70;4.20;;;11.20;99.90;;;;;;5050638;28;20520;-64
2023/10/09 03:32:50;;;;;;;4.43;4.13;;;11.20;99.90;;;;;;5050767;28;20865;-64
2023/10/09 03:35:24;;;;;;;5.10;3.33;;;11.20;99.90;;;;;;5050237;28;20487;-64
2023/10/09 03:37:52;;;;;;;4.50;4.00;;;11.20;99.90;;;;;;5050073;28;20834;-64
2023/10/09 03:40:20;;;;;;;7.10;3.60;;;11.20;99.90;;;;;;5053987;28;20447;-64
2023/10/09 03:42:48;;;;;;;4.00;3.60;;;11.10;99.90;;;;;;5054274;28;20436;-63
2023/10/09 03:45:24;;;;;;;4.30;3.43;;;11.10;99.90;;;;;;5054279;28;20503;-63
2023/10/09 03:47:57;;;;;;;6.03;4.33;;;11.10;99.90;;;;;;5053974;28;20455;-64
2023/10/09 03:50:26;;;;;;;5.60;4.63;;;11.10;99.90;;;;;;5054468;28;20446;-64
2023/10/09 03:52:54;;;;;;;3.90;3.50;;;11.10;99.90;;;;;;5054379;28;21186;-64
2023/10/09 03:55:27;;;;;;;4.33;3.93;;;11.10;99.90;;;;;;5054253;28;20479;-64
2023/10/09 03:57:57;;;;;;;4.23;3.83;;;11.00;99.90;;;;;;5053866;28;20504;-63
2023/10/09 04:00:28;;;;;;;5.00;4.60;;;11.00;99.90;;;;;;5053942;28;20951;-64
2023/10/09 04:02:56;;;;;;;4.53;4.10;;;11.00;99.90;;;;;;5053997;28;20543;-64
2023/10/09 04:05:24;;;;;;;4.27;3.97;;;11.00;99.90;;;;;;5053968;28;20467;-63
2023/10/09 04:07:53;;;;;;;5.60;4.53;;;11.00;99.90;;;;;;5053687;28;20867;-64
2023/10/09 04:13:12;;;;;;;5.13;4.63;;;11.00;99.90;;;;;;5053902;28;20518;-64
2023/10/09 04:15:42;;;;;;;4.70;4.30;;;10.90;99.90;;;;;;5053675;28;20478;-63
2023/10/09 04:18:14;;;;;;;6.30;4.30;;;10.90;99.90;;;;;;5053634;28;20458;-64
2023/10/09 04:21:18;;;;;;;5.40;4.40;;;10.90;99.90;;;;;;5053647;28;20544;-64
2023/10/09 04:23:59;;;;;;;4.30;3.77;;;10.90;99.90;;;;;;5053845;28;20438;-64
2023/10/09 04:26:29;;;;;;;6.73;4.87;;;10.90;99.90;;;;;;5053527;28;20475;-64
2023/10/09 04:28:57;;;;;;;5.13;4.63;;;10.90;99.90;;;;;;5053311;28;20995;-63
2023/10/09 04:31:31;;;;;;;6.80;4.87;;;10.90;99.90;;;;;;5053546;28;20447;-64
2023/10/09 04:36:47;;;;;;;5.37;4.87;;;10.90;99.90;;;;;;5052335;28;20455;-63
2023/10/09 04:42:37;;;;;;;5.57;4.20;;;10.90;99.90;;;;;;4972396;28;20483;-64
2023/10/09 04:47:57;;;;;;;6.30;5.70;;;10.90;99.90;;;;;;5053101;28;20812;-64
2023/10/09 04:53:23;;;;;;;5.80;5.20;;;10.90;99.90;;;;;;5053198;28;20493;-64
2023/10/09 04:55:57;;;;;;;5.17;4.67;;;10.90;99.90;;;;;;5052975;28;20464;-64
2023/10/09 04:58:25;;;;;;;5.80;5.30;;;10.90;99.90;;;;;;5052586;28;20454;-63
2023/10/09 05:01:11;;;;;;;4.63;4.33;;;10.90;99.90;;;;;;5052877;28;20490;-63
2023/10/09 05:03:45;;;;;;;5.20;4.70;;;10.90;99.90;;;;;;5053084;28;20527;-64
2023/10/09 05:06:38;;;;;;;5.90;5.40;;;10.90;99.90;;;;;;5052898;28;20464;-63
2023/10/09 05:09:14;;;;;;;4.83;4.43;;;10.90;99.90;;;;;;5052402;28;21026;-64
2023/10/09 05:12:15;;;;;;;6.43;4.50;;;10.90;99.90;;;;;;5052956;28;20885;-64
2023/10/09 05:14:47;;;;;;;4.60;4.20;;;10.90;99.90;;;;;;5052565;28;20467;-64
2023/10/09 05:17:25;;;;;;;7.40;4.90;;;10.90;99.90;;;;;;5052577;28;20444;-63
2023/10/09 05:20:55;;;;;;;6.70;6.10;;;10.90;99.90;;;;;;5052337;28;20921;-64
2023/10/09 05:22:56;;;;;;;6.03;5.17;;;11.00;99.90;;;;;;5051997;28;20440;-64
2023/10/09 05:25:53;;;;;;;5.30;4.80;;;11.00;99.90;;;;;;5052212;28;20550;-64
2023/10/09 05:28:31;;;;;;;5.23;4.73;;;11.00;99.90;;;;;;5051909;28;20456;-64
2023/10/09 05:31:06;;;;;;;5.80;5.33;;;11.00;99.90;;;;;;5052544;28;20453;-64
2023/10/09 05:33:36;;;;;;;5.33;4.00;;;11.00;99.90;;;;;;5052445;28;20451;-64
2023/10/09 05:36:31;;;;;;;4.97;4.47;;;11.00;99.90;;;;;;5052170;28;20533;-63
2023/10/09 05:38:58;;;;;;;4.73;4.33;;;11.00;99.90;;;;;;5052063;28;20818;-64
2023/10/09 05:47:22;;;;;;;4.90;4.50;;;11.00;99.90;;;;;;5052025;28;20565;-64
2023/10/09 05:50:01;;;;;;;7.30;4.93;;;11.00;99.90;;;;;;5051839;28;20573;-64
2023/10/09 05:53:00;;;;;;;6.10;4.60;;;11.00;99.90;;;;;;5051941;28;20455;-64
2023/10/09 05:57:00;;;;;;;5.20;4.70;;;11.00;99.90;;;;;;5052103;28;20510;-64
2023/10/09 06:04:15;;;;;;;6.60;5.00;;;11.00;99.90;;;;;;5051869;28;20481;-64
2023/10/09 06:06:44;;;;;;;5.80;5.27;;;11.10;99.90;;;;;;5051611;28;20841;-64
2023/10/09 06:15:18;;;;;;;5.07;4.67;;;11.10;99.90;;;;;;5031679;28;20976;-64
2023/10/09 06:17:50;;;;;;;6.37;4.50;;;11.20;99.90;;;;;;5026298;28;20446;-64
2023/10/09 06:23:15;;;;;;;9.73;7.00;;;11.20;99.90;;;;;;5011451;28;20429;-63
2023/10/09 06:25:50;;;;;;;7.43;6.73;;;11.20;99.90;;;;;;5011268;28;20468;-64
2023/10/09 06:28:19;;;;;;;6.67;6.17;;;11.20;99.90;;;;;;5011015;28;20496;-64
2023/10/09 06:30:47;;;;;;;6.47;5.90;;;11.20;99.90;;;;;;5011166;28;20490;-64
2023/10/09 06:33:29;;;;;;;5.30;4.80;;;11.30;99.90;;;;;;5011336;28;21144;-64
2023/10/09 06:35:56;;;;;;;7.50;6.10;;;11.30;99.90;;;;;;5010936;28;20506;-63
2023/10/09 06:38:23;;;;;;;6.90;6.30;;;11.40;99.90;;;;;;5010923;28;20811;-64
2023/10/09 06:43:53;;;;;;;8.03;7.30;;;11.40;99.90;;;;;;4969076;28;20875;-64
2023/10/09 06:46:43;;;;;;;8.17;7.47;;;11.50;99.90;;;;;;4969511;28;20479;-64
2023/10/09 06:49:29;;;;;;;7.13;6.53;;;11.60;99.90;;;;;;4968893;28;20480;-64
2023/10/09 06:52:08;;;;;;;7.73;6.90;;;11.60;99.90;;;;;;4969533;28;20447;-64
2023/10/09 06:54:38;;;;;;;10.97;8.60;;;11.70;99.90;;;;;;4969698;28;20543;-64
2023/10/09 06:57:13;;;;;;;10.03;9.10;;;11.70;99.90;;;;;;4969649;28;20456;-64
2023/10/09 07:00:15;;;;;;;10.00;9.13;;;11.70;99.90;;;;;;4969121;28;20534;-64
2023/10/09 07:02:31;;;;;;;10.67;9.77;;;11.80;99.90;;;;;;4969446;28;20454;-64
2023/10/09 07:05:10;;;;;;;11.93;10.93;;;11.80;99.90;;;;;;4969470;28;20535;-64
2023/10/09 07:07:47;;;;;;;11.50;10.37;;;11.90;99.90;;;;;;4984300;28;20939;-64
2023/10/09 07:10:32;;;;;;;11.37;10.30;;;11.90;99.90;;;;;;4983888;28;20506;-64
2023/10/09 07:12:59;;;;;;;11.93;10.90;;;12.00;99.90;;;;;;4988787;28;20491;-64
2023/10/09 07:18:19;;;;;;;10.00;8.97;;;12.10;99.90;;;;;;5000941;28;20425;-63
2023/10/09 07:20:58;;;;;;;10.70;9.60;;;12.20;99.90;;;;;;5034296;28;20573;-64
2023/10/09 07:23:28;;;;;;;9.03;8.17;;;12.20;99.90;;;;;;5034414;28;20458;-65
2023/10/09 07:26:17;;;;;;;9.70;8.80;;;12.30;99.90;;;;;;5014718;28;20504;-64
2023/10/09 07:28:48;;;;;;;13.77;7.30;;;12.40;99.90;;;;;;5013562;28;20480;-64
2023/10/09 07:31:24;;;;;;;6.10;5.60;;;12.50;99.90;;;;;;5014491;28;20532;-64
2023/10/09 07:33:57;;;;;;;5.90;5.40;;;12.60;99.90;;;;;;5014723;28;20445;-64
2023/10/09 07:36:34;;;;;;;7.00;6.13;;;12.70;99.90;;;;;;5014606;28;20499;-64
2023/10/09 07:39:01;;;;;;;7.83;7.23;;;12.70;99.90;;;;;;5014203;28;20816;-64
2023/10/09 07:41:37;;;;;;;8.30;7.50;;;12.80;99.90;;;;;;5022118;28;20441;-64
2023/10/09 07:44:33;;;;;;;6.50;5.90;;;12.90;99.90;;;;;;5033414;28;20453;-64
2023/10/09 07:47:16;;;;;;;6.60;6.00;;;13.00;99.90;;;;;;5014395;28;20494;-64
2023/10/09 07:49:48;;;;;;;6.90;5.80;;;13.10;99.90;;;;;;5013682;28;20493;-64
2023/10/09 07:52:16;;;;;;;7.80;7.00;;;13.20;99.90;;;;;;5014240;28;20446;-64
2023/10/09 07:54:49;;;;;;;9.37;8.47;;;13.20;99.90;;;;;;5014353;28;20462;-64
2023/10/09 07:57:25;;;;;;;7.43;6.73;;;13.30;99.90;;;;;;5014331;28;20448;-64
2023/10/09 08:00:00;;;;;;;6.50;5.90;;;13.40;99.90;;;;;;5013678;28;20446;-64
2023/10/09 08:02:32;;;;;;;6.97;5.90;;;13.50;99.90;;;;;;5014041;28;20441;-64
2023/10/09 08:05:04;;;;;;;7.77;5.30;;;13.60;99.90;;;;;;5013721;28;20471;-64
2023/10/09 08:07:35;;;;;;;5.63;5.13;;;13.70;99.90;;;;;;5013854;28;20504;-63
2023/10/09 08:12:58;;;;;;;4.90;4.60;;;13.90;99.90;;;;;;5013835;28;20422;-64
2023/10/09 08:15:34;;;;;;;6.37;5.70;;;14.00;99.90;;;;;;5013767;28;20495;-64
2023/10/09 08:18:03;;;;;;;5.53;4.53;;;14.10;99.90;;;;;;5013370;28;20936;-65
2023/10/09 08:20:50;;;;;;;6.17;5.43;;;14.20;99.90;;;;;;5013523;28;20456;-64
2023/10/09 08:23:23;;;;;;;6.07;5.47;;;14.20;99.90;;;;;;5013827;28;20469;-64
2023/10/09 08:26:01;;;;;;;5.90;5.40;;;14.30;99.90;;;;;;5012257;28;20503;-64
2023/10/09 08:28:42;;;;;;;6.83;6.23;;;14.30;99.90;;;;;;5013315;28;20518;-65
2023/10/09 08:31:19;;;;;;;5.90;4.60;;;14.40;99.90;;;;;;5013385;28;20492;-65
2023/10/09 08:33:45;;;;;;;6.00;5.40;;;14.40;99.90;;;;;;5013410;28;20547;-64
2023/10/09 08:36:14;;;;;;;5.20;4.80;;;14.50;99.90;;;;;;5013317;28;20475;-64
2023/10/09 08:38:42;;;;;;;6.33;5.73;;;14.50;99.90;;;;;;5012837;28;20455;-64
2023/10/09 08:41:17;;;;;;;6.23;5.63;;;14.60;99.90;;;;;;5012409;28;20435;-64
2023/10/09 08:43:52;;;;;;;7.23;6.53;;;14.60;99.90;;;;;;5011930;28;20491;-64
2023/10/09 08:46:26;;;;;;;6.50;5.90;;;14.60;99.90;;;;;;5029391;28;20475;-64
2023/10/09 08:48:55;;;;;;;6.60;6.00;;;14.60;99.90;;;;;;5032652;28;21082;-65
2023/10/09 08:51:23;;;;;;;5.90;5.33;;;14.70;99.90;;;;;;5032692;28;20560;-64
2023/10/09 08:53:49;;;;;;;6.53;5.80;;;14.70;99.90;;;;;;5032926;28;20456;-65
2023/10/09 08:56:21;;;;;;;5.63;4.97;;;14.80;99.90;;;;;;5032636;28;20523;-65
2023/10/09 08:58:52;;;;;;;6.73;4.90;;;14.90;99.90;;;;;;5032409;28;20521;-64
2023/10/09 09:01:21;;;;;;;6.43;5.70;;;14.90;99.90;;;;;;5032786;28;20450;-64
2023/10/09 09:03:48;;;;;;;6.90;5.83;;;15.00;99.90;;;;;;5032586;28;20455;-65
2023/10/09 09:06:15;;;;;;;5.00;4.60;;;15.00;99.90;;;;;;5032565;28;20474;-64
2023/10/09 09:08:44;;;;;;;6.23;5.03;;;15.10;99.90;;;;;;5032185;28;20541;-64
2023/10/09 09:11:13;;;;;;;4.87;4.50;;;15.10;99.90;;;;;;5022850;22;20572;-61
2023/10/09 09:13:42;;;;;;;5.57;5.00;;;15.10;99.90;;;;;;4993087;28;20458;-61
2023/10/09 09:16:21;;;;;;;8.33;5.40;;;15.20;99.90;;;;;;4993400;28;20460;-61
2023/10/09 09:19:04;;;;;;;4.70;4.30;;;15.30;99.90;;;;;;4993487;28;20499;-61
2023/10/09 09:21:40;;;;;;;6.20;5.20;;;15.30;99.90;;;;;;4974407;28;20460;-61
2023/10/09 09:24:26;;;;;;;7.93;6.13;;;15.30;99.90;;;;;;4974173;28;20452;-61
2023/10/09 09:26:59;;;;;;;6.07;4.90;;;15.30;99.90;;;;;;4974201;28;20884;-61
2023/10/09 09:29:40;;;;;;;5.27;4.63;;;15.30;99.90;;;;;;4973497;28;20459;-61
2023/10/09 09:32:17;;;;;;;5.97;5.47;;;15.40;99.90;;;;;;4973860;28;20536;-61
2023/10/09 09:34:48;;;;;;;7.70;6.93;;;15.40;99.90;;;;;;4974018;28;20858;-61
2023/10/09 09:37:20;;;;;;;7.93;5.30;;;15.40;99.90;;;;;;4972658;28;20467;-61
2023/10/09 09:39:51;;;;;;;7.37;6.63;;;15.40;99.90;;;;;;4973244;28;20472;-61
2023/10/09 09:42:24;;;;;;;7.20;6.60;;;15.40;99.90;;;;;;4973507;28;20973;-61
2023/10/09 09:44:52;;;;;;;9.43;6.53;;;15.40;99.90;;;;;;4972890;28;20456;-61
2023/10/09 09:47:26;;;;;;;9.37;5.60;;;15.50;99.90;;;;;;4973560;28;20559;-61
2023/10/09 09:49:59;;;;;;;10.17;8.87;;;15.50;99.90;;;;;;4972931;28;20490;-61
2023/10/09 09:52:27;;;;;;;7.63;6.60;;;15.60;99.90;;;;;;4973297;28;20554;-61
2023/10/09 09:54:54;;;;;;;10.20;6.00;;;15.60;99.90;;;;;;4973421;28;20871;-61
2023/10/09 09:57:26;;;;;;;6.87;6.30;;;15.60;99.90;;;;;;4972960;28;20527;-61
2023/10/09 09:59:55;;;;;;;6.73;5.73;;;15.70;99.90;;;;;;4972762;28;20466;-61
2023/10/09 10:02:29;;;;;;;7.60;6.27;;;15.70;99.90;;;;;;4973029;28;20454;-61
2023/10/09 10:04:59;;;;;;;11.50;7.10;;;15.80;99.90;;;;;;4973174;28;20905;-61
2023/10/09 10:07:31;;;;;;;8.40;7.73;;;15.90;99.90;;;;;;4973053;28;20453;-61
2023/10/09 10:09:58;;;;;;;9.60;8.80;;;15.90;99.90;;;;;;4972466;28;20492;-61
2023/10/09 10:12:59;;;;;;;9.00;8.10;;;16.00;99.90;;;;;;4972943;28;20533;-61
2023/10/09 10:16:00;;;;;;;8.37;7.47;;;16.20;99.90;;;;;;4972878;28;20456;-61
2023/10/09 10:18:35;;;;;;;7.77;6.97;;;16.20;99.90;;;;;;4969962;28;20450;-61
2023/10/09 10:21:15;;;;;;;8.83;7.30;;;16.30;99.90;;;;;;4972220;28;20908;-61
2023/10/09 10:23:47;;;;;;;8.03;7.13;;;16.40;99.90;;;;;;4972111;28;20925;-61
2023/10/09 10:26:26;;;;;;;7.10;6.50;;;16.60;99.90;;;;;;4971663;28;20509;-62
2023/10/09 10:29:22;;;;;;;8.50;7.40;;;16.70;99.90;;;;;;4971576;28;20458;-61
2023/10/09 10:32:01;;;;;;;13.17;6.80;;;16.80;99.90;;;;;;4972212;28;20915;-61
2023/10/09 10:34:55;;;;;;;15.47;8.50;;;16.90;99.90;;;;;;4972416;28;20943;-61
2023/10/09 10:37:28;;;;;;;10.17;7.33;;;17.00;99.90;;;;;;4972644;28;20461;-62
2023/10/09 10:39:59;;;;;;;10.83;7.10;;;17.10;99.90;;;;;;4972175;28;20521;-62
2023/10/09 10:42:34;;;;;;;11.93;7.33;;;17.10;99.90;;;;;;4971675;28;20458;-61
2023/10/09 10:45:03;;;;;;;9.30;6.60;;;17.20;99.90;;;;;;4972237;28;20465;-61
2023/10/09 10:47:34;;;;;;;9.00;6.50;;;17.30;99.90;;;;;;4970409;28;20541;-62
2023/10/09 10:50:34;;;;;;;8.97;6.77;;;17.40;99.90;;;;;;4971060;28;20497;-62
2023/10/09 10:53:13;;;;;;;11.17;5.73;;;17.40;99.90;;;;;;4971804;28;20465;-61
2023/10/09 10:58:35;;;;;;;10.23;6.03;;;17.40;99.90;;;;;;4966267;28;20443;-61
2023/10/09 11:01:14;;;;;;;7.93;5.83;;;17.40;99.90;;;;;;4972263;28;20462;-61
2023/10/09 11:03:55;;;;;;;8.20;5.57;;;17.40;99.90;;;;;;4972062;28;20451;-61
2023/10/09 11:06:36;;;;;;;9.20;5.67;;;17.40;99.90;;;;;;4972295;28;20439;-61
2023/10/09 11:09:20;;;;;;;9.03;4.97;;;17.50;99.90;;;;;;4971983;28;20453;-62
2023/10/09 11:11:48;;;;;;;10.07;4.70;;;17.50;99.90;;;;;;4971826;28;20490;-62
2023/10/09 11:14:15;;;;;;;7.03;6.00;;;17.50;99.90;;;;;;4964265;28;20456;-64
2023/10/09 11:16:41;;;;;;;12.07;6.50;;;17.60;99.90;;;;;;4969686;28;20458;-62
2023/10/09 11:19:22;;;;;;;7.87;5.93;;;17.60;99.90;;;;;;4970873;28;20453;-61
2023/10/09 11:21:58;;;;;;;5.23;4.63;;;17.60;99.90;;;;;;4970995;28;20447;-62
2023/10/09 11:24:27;;;;;;;10.63;5.97;;;17.60;99.90;;;;;;4971361;28;20815;-62
2023/10/09 11:26:55;;;;;;;48.27;12.50;;;17.70;99.90;;;;;;4971079;28;20839;-62
2023/10/09 11:29:52;;;;;;;13.73;6.50;;;17.80;99.90;;;;;;4970786;28;20469;-61
2023/10/09 11:32:22;;;;;;;9.33;6.57;;;17.80;99.90;;;;;;4961183;28;20435;-62
2023/10/09 11:34:51;;;;;;;8.53;5.20;;;17.80;99.90;;;;;;4971411;28;20438;-62
2023/10/09 11:37:38;;;;;;;8.83;6.50;;;17.90;99.90;;;;;;4970936;28;20446;-62
2023/10/09 11:40:21;;;;;;;12.67;5.97;;;17.90;99.90;;;;;;4955259;28;20485;-62
2023/10/09 11:42:50;;;;;;;11.87;6.80;;;18.00;99.90;;;;;;4971215;28;20553;-62
2023/10/09 11:45:28;;;;;;;7.77;6.10;;;18.00;99.90;;;;;;4971235;28;20453;-62
2023/10/09 11:47:59;;;;;;;7.80;6.20;;;18.10;99.90;;;;;;4970680;28;20447;-62
2023/10/09 11:50:42;;;;;;;11.30;6.53;;;18.10;99.90;;;;;;4970423;28;20487;-62
2023/10/09 11:53:34;;;;;;;12.10;6.40;;;18.20;99.90;;;;;;4971183;28;20938;-62
2023/10/09 11:56:00;;;;;;;9.10;5.53;;;18.20;99.90;;;;;;4970894;28;20539;-62
2023/10/09 11:58:27;;;;;;;7.83;5.57;;;18.30;99.90;;;;;;4970775;28;20543;-62
2023/10/09 12:00:59;;;;;;;7.20;5.00;;;18.40;99.90;;;;;;4973610;28;20463;-62
2023/10/09 12:03:29;;;;;;;9.70;5.13;;;18.40;99.90;;;;;;4974647;28;20448;-62
2023/10/09 12:05:57;;;;;;;7.97;5.37;;;18.50;99.90;;;;;;4974569;28;20452;-62
2023/10/09 12:08:27;;;;;;;11.10;5.53;;;18.60;99.90;;;;;;4973859;28;20443;-62
2023/10/09 12:10:55;;;;;;;6.00;4.07;;;18.70;99.90;;;;;;4974025;28;20498;-62
2023/10/09 12:13:23;;;;;;;9.90;4.77;;;18.70;99.90;;;;;;4974341;28;20455;-62
2023/10/09 12:15:52;;;;;;;8.03;5.37;;;18.70;99.90;;;;;;4974284;28;20458;-62
2023/10/09 12:18:21;;;;;;;7.93;5.40;;;18.60;99.90;;;;;;4974015;28;20871;-62
2023/10/09 12:20:50;;;;;;;9.47;5.90;;;18.70;99.90;;;;;;4974383;28;20475;-62
2023/10/09 12:23:17;;;;;;;23.53;6.80;;;18.70;99.90;;;;;;4979355;28;20442;-62
2023/10/09 12:25:46;;;;;;;17.43;6.13;;;18.80;99.90;;;;;;4970494;28;20942;-62
2023/10/09 12:28:13;;;;;;;10.87;6.17;;;18.80;99.90;;;;;;4968338;28;20896;-62
2023/10/09 12:30:41;;;;;;;11.67;5.27;;;18.90;99.90;;;;;;4973323;28;20491;-62
2023/10/09 12:33:08;;;;;;;6.03;4.47;;;18.90;99.90;;;;;;4968721;28;20461;-62
2023/10/09 12:35:39;;;;;;;7.40;5.07;;;18.90;99.90;;;;;;4973520;28;20555;-62
2023/10/09 12:38:08;;;;;;;8.30;4.33;;;18.90;99.90;;;;;;4968347;28;20985;-62
2023/10/09 12:40:36;;;;;;;7.47;4.83;;;19.00;99.90;;;;;;4973930;28;20919;-62
2023/10/09 12:43:05;;;;;;;5.73;5.23;;;19.00;99.90;;;;;;4970274;28;20461;-62
2023/10/09 12:45:35;;;;;;;12.00;6.10;;;19.10;99.90;;;;;;4973930;28;20951;-62
2023/10/09 12:48:03;;;;;;;7.87;5.10;;;19.20;99.90;;;;;;4970397;28;20486;-62
2023/10/09 12:50:33;;;;;;;11.53;5.20;;;19.20;99.90;;;;;;4973581;28;20491;-62
2023/10/09 12:53:06;;;;;;;7.70;4.57;;;19.30;99.90;;;;;;4971915;28;20489;-62
2023/10/09 12:55:37;;;;;;;5.27;4.70;;;19.30;99.90;;;;;;4973537;28;20466;-62
2023/10/09 12:58:07;;;;;;;8.30;5.40;;;19.40;99.90;;;;;;4960607;28;20834;-62
2023/10/09 13:00:37;;;;;;;8.83;4.93;;;19.40;99.90;;;;;;4973297;28;20460;-62
2023/10/09 13:03:16;;;;;;;8.50;4.90;;;19.50;99.90;;;;;;4970991;28;20462;-61
2023/10/09 13:05:51;;;;;;;8.17;5.60;;;19.60;99.90;;;;;;4971487;28;20867;-62
2023/10/09 13:08:21;;;;;;;7.60;6.47;;;19.70;99.90;;;;;;4966182;28;20834;-62
2023/10/09 13:10:54;;;;;;;6.93;5.50;;;19.90;99.90;;;;;;4973048;28;20495;-62
2023/10/09 13:13:22;;;;;;;5.27;4.77;;;20.00;99.90;;;;;;4965781;28;20457;-62
2023/10/09 13:15:49;;;;;;;6.30;4.87;;;20.10;99.90;;;;;;4969521;28;20468;-62
2023/10/09 13:18:16;;;;;;;7.60;5.07;;;20.10;99.90;;;;;;4973015;28;20881;-62
2023/10/09 13:20:44;;;;;;;7.90;5.13;;;20.10;99.90;;;;;;4966743;28;20479;-62
2023/10/09 13:23:14;;;;;;;10.20;5.73;;;20.20;99.90;;;;;;4968193;28;21054;-62
2023/10/09 13:25:41;;;;;;;5.40;4.23;;;20.30;99.90;;;;;;4971257;28;20459;-62
2023/10/09 13:28:08;;;;;;;6.50;4.40;;;20.30;99.90;;;;;;4971571;28;20900;-62
2023/10/09 13:30:48;;;;;;;6.23;4.60;;;20.30;99.90;;;;;;4967444;28;20565;-62
2023/10/09 13:33:16;;;;;;;11.57;5.47;;;20.40;99.90;;;;;;4966363;28;21011;-62
2023/10/09 13:35:50;;;;;;;56.50;9.47;;;20.40;99.90;;;;;;4968668;28;20465;-62
2023/10/09 13:38:17;;;;;;;12.80;4.97;;;20.40;99.90;;;;;;4972427;28;20440;-62
2023/10/09 13:40:44;;;;;;;5.30;4.90;;;20.50;99.90;;;;;;4966577;28;20479;-62
2023/10/09 13:43:16;;;;;;;34.37;7.60;;;20.50;99.90;;;;;;4971963;28;21044;-62
2023/10/09 13:45:49;;;;;;;68.80;10.57;;;20.50;99.90;;;;;;4969906;28;20464;-62
2023/10/09 13:48:18;;;;;;;8.37;5.30;;;20.60;99.90;;;;;;4967213;28;20489;-62
2023/10/09 13:50:44;;;;;;;10.00;4.90;;;20.60;99.90;;;;;;4968631;28;20516;-62
2023/10/09 13:53:12;;;;;;;6.40;4.77;;;20.60;99.90;;;;;;4972042;28;20896;-62
2023/10/09 13:55:43;;;;;;;7.00;5.07;;;20.60;99.90;;;;;;4970782;28;20460;-62
2023/10/09 13:58:13;;;;;;;9.63;4.97;;;20.60;99.90;;;;;;4965707;28;20499;-62
2023/10/09 14:00:42;;;;;;;10.57;4.73;;;20.60;99.90;;;;;;4969252;28;20963;-62
2023/10/09 14:03:13;;;;;;;4.27;3.67;;;20.60;99.90;;;;;;4972412;28;20959;-62
2023/10/09 14:05:51;;;;;;;6.90;4.53;;;20.60;99.90;;;;;;4967858;28;20461;-62